Broken Arrow, OK

2:59 PM CDT on May 25, 2015 (GMT -0500)
Claremore Regional | | Change Station
CLOSE
Current Station
Airport
Location: Claremore,
Elevation: 725 ft
Nearby Weather Stations

Elev 725 ft 36.29 °N, 95.48 °W | Updated 24 minutes ago

Mostly Cloudy
Mostly Cloudy
81 °F
Feels Like 83 °F
N
14
Wind Variable Wind from South
Gusts 21 mph

Today
High -- | Low -- °F
--% Chance of Precip.
Yesterday
High -- | Low -- °F
Precip. -- in
6:11 AM 8:29 PM
Waxing Crescent, 51% visible
Pressure 29.93 in
Visibility 10.0 miles
Clouds
Heat Index 83 °F
Dew Point 68 °F
Humidity 65%
Rainfall 0.00 in
Snow Depth Not available.
UV Not available.
Pollen 5.80 out of 12
Air Quality Not available.
Flu Activity Sporadic
METAR KGCM 251935Z AUTO 19012G18KT 10SM 27/20 A2993 RMK AO2

More Conditions Fewer Conditions

Pressure 29.93 in
Visibility 10.0 miles
Clouds
Heat Index 83 °F
Dew Point 68 °F
Humidity 65%
Rainfall 0.00 in
Snow Depth Not available.
UV Not available.
Pollen 5.80 out of 12
Air Quality Not available.
Flu Activity Sporadic
METAR KGCM 251935Z AUTO 19012G18KT 10SM 27/20 A2993 RMK AO2

More Conditions Fewer Conditions

Nowcast | as of 2:04 PM CDT on May 25, 2015

At 2:04 PM...Doppler radars detected isolated showers developing within the warm and moist environment in place across the area. Current activity was located across portions of eastern Oklahoma. Movement was toward the northeast at around 25 mph. Through 3:45 PM...isolated to widely scattered showers and thunderstorms will be possible across the area. While no one location will have a higher chance of being impacted...development is possible anywhere across eastern Oklahoma and western Arkansas. Locally heavy downpours...gusty winds and hail will be possible with any thunderstorms that develop. Of greater concern is the complex of thunderstorms to our southwest which are moving rapidly east. This activity will be moving into the forecast area over the next couple of hours.

×

10-Day Weather Forecast

Almanac

Astronomy

May. 25, 2015 Rise Set
Actual Time
Civil Twilight
Nautical Twilight
Astronomical Twilight
Moon
Length of Visible Light
Length of Day
Tomorrow will be .
, % of the Moon is Illuminated

Today's Extremes

State Highs State Lows

Community

WunderPhotos

Upload Photos

1,824,102 photos uploaded!

WunderBlogs® & News

Nearby

Air Quality

  Air Quality AQ Index Pollutant
Not available.

Snow Depth

Station Depth Elevation

Earthquake Activity

City Distance Mag. Time & Date
Minimum magnitude displayed is 2.5.

Coastal Water Temperatures

Place Temperature

Stations

Nearby Weather Stations

Station Location Temp. Windchill Dew Point Humidity Wind Precip. Elev Updated Type